Terminal Aerodrome Forecast
Issued by NWS

Home | Current Version | Previous Version | Graphics & Text | Print | Product List | Glossary On
Versions: 1 2 3 4 5 6 7 8 9 10 11 12 13 14 15 16 17 18 19 20
728
FTUS43 KMPX 172346
TAFRNH
TAF
KRNH 172346Z 1800/1824 18010KT P6SM FEW045 SCT140
     FM180300 18005KT P6SM VCTS SCT050CB OVC080
     FM180700 17004KT P6SM SCT045 BKN080
     FM181400 23004KT P6SM SCT025 BKN045
     FM181700 32004KT P6SM VCSH SCT035 BKN045
     FM181900 01007KT P6SM SHRA VCTS SCT020CB OVC060=

USA.gov is the U.S. government's official web portal to all federal, state and local government web resources and services.